Time;durP1;ratioP1;P1;durP2;ratioP2;P2;SDS_P1;SDS_P2;PMS_P1;PMS_P2;Temp;Humidity;BMP_temperature;BMP_pressure;BME280_temperature;BME280_humidity;BME280_pressure;Samples;Min_cycle;Max_cycle;Signal;HPM_P1;HPM_P2
2022/04/20 00:00:39;;;;;;;13.45;9.52;;;;;;;;;;5094808;28;20024;-46
2022/04/20 00:03:05;;;;;;;12.43;8.20;;;;;;;;;;5094494;28;20115;-47
2022/04/20 00:05:33;;;;;;;12.48;8.27;;;;;;;;;;5094362;28;20032;-46
2022/04/20 00:08:00;;;;;;;13.40;8.00;;;;;;;;;;5094676;28;20020;-44
2022/04/20 00:10:27;;;;;;;6.40;5.50;;;;;;;;;;5094558;28;20032;-46
2022/04/20 00:12:52;;;;;;;13.85;9.75;;;;;;;;;;5094246;28;20483;-44
2022/04/20 00:15:18;;;;;;;16.15;11.25;;;;;;;;;;5094089;28;20032;-47
2022/04/20 00:17:43;;;;;;;20.85;11.82;;;;;;;;;;5094160;28;20119;-45
2022/04/20 00:20:09;;;;;;;23.25;13.05;;;;;;;;;;5094087;28;20027;-47
2022/04/20 00:22:35;;;;;;;19.40;12.05;;;;;;;;;;5094364;28;20039;-46
2022/04/20 00:25:00;;;;;;;3.97;3.08;;;;;;;;;;5094247;28;20473;-45
2022/04/20 00:27:26;;;;;;;2.90;2.55;;;;;;;;;;5093997;28;20111;-45
2022/04/20 00:29:51;;;;;;;13.13;8.95;;;;;;;;;;5093938;28;20028;-45
2022/04/20 00:32:17;;;;;;;18.45;10.20;;;;;;;;;;5093943;28;20027;-48
2022/04/20 00:34:42;;;;;;;17.88;10.10;;;;;;;;;;5093787;28;20077;-47
2022/04/20 00:37:08;;;;;;;15.45;9.90;;;;;;;;;;5093756;28;20024;-48
2022/04/20 00:39:36;;;;;;;16.40;10.35;;;;;;;;;;5094032;28;20032;-50
2022/04/20 00:42:01;;;;;;;16.83;11.30;;;;;;;;;;5093994;28;20020;-47
2022/04/20 00:44:28;;;;;;;20.70;11.52;;;;;;;;;;5093561;28;20501;-46
2022/04/20 00:46:55;;;;;;;14.65;10.77;;;;;;;;;;5093618;28;20364;-44
2022/04/20 00:49:21;;;;;;;19.52;11.43;;;;;;;;;;5093891;28;20471;-46
2022/04/20 00:51:57;;;;;;;20.40;12.55;;;;;;;;;;5093798;28;20052;-48
2022/04/20 00:54:23;;;;;;;17.63;11.15;;;;;;;;;;5093778;28;20038;-45
2022/04/20 00:56:49;;;;;;;10.65;6.72;;;;;;;;;;5093307;28;20096;-47
2022/04/20 00:59:21;;;;;;;15.50;11.23;;;;;;;;;;5093672;28;20024;-44
2022/04/20 01:01:47;;;;;;;10.07;5.72;;;;;;;;;;5093430;28;20517;-47
2022/04/20 01:04:13;;;;;;;7.45;6.57;;;;;;;;;;5093632;28;20226;-47
2022/04/20 01:06:39;;;;;;;9.50;8.25;;;;;;;;;;5093706;28;20134;-44
2022/04/20 01:09:05;;;;;;;15.80;9.55;;;;;;;;;;5093535;28;20035;-46
2022/04/20 01:11:31;;;;;;;19.30;11.88;;;;;;;;;;5093206;28;20479;-47
2022/04/20 01:13:57;;;;;;;18.30;11.50;;;;;;;;;;5093213;28;20027;-46
2022/04/20 01:16:22;;;;;;;21.17;12.82;;;;;;;;;;5093038;28;20112;-44
2022/04/20 01:18:51;;;;;;;21.02;12.05;;;;;;;;;;5093153;28;20070;-45
2022/04/20 01:21:16;;;;;;;21.38;12.15;;;;;;;;;;5092999;28;20024;-47
2022/04/20 01:23:45;;;;;;;21.35;13.25;;;;;;;;;;5093087;28;20028;-51
2022/04/20 01:26:11;;;;;;;21.23;12.27;;;;;;;;;;5092821;28;20081;-46
2022/04/20 01:28:38;;;;;;;23.65;13.00;;;;;;;;;;5092855;28;20024;-47
2022/04/20 01:31:05;;;;;;;21.38;12.77;;;;;;;;;;5093203;28;20039;-46
2022/04/20 01:33:31;;;;;;;20.67;12.20;;;;;;;;;;5092832;28;20028;-47
2022/04/20 01:35:56;;;;;;;20.92;13.55;;;;;;;;;;5093019;28;20039;-46
2022/04/20 01:38:22;;;;;;;21.02;12.93;;;;;;;;;;5093048;28;20391;-45
2022/04/20 01:40:47;;;;;;;22.00;13.13;;;;;;;;;;5093029;28;20471;-48
2022/04/20 01:43:13;;;;;;;20.52;12.68;;;;;;;;;;5092763;28;20476;-47
2022/04/20 01:45:38;;;;;;;22.75;14.13;;;;;;;;;;5092942;28;20028;-47
2022/04/20 01:48:06;;;;;;;23.88;13.98;;;;;;;;;;5092854;28;20032;-45
2022/04/20 01:50:31;;;;;;;20.35;12.88;;;;;;;;;;5092650;28;20028;-50
2022/04/20 01:52:57;;;;;;;19.27;12.40;;;;;;;;;;5092934;28;20081;-48
2022/04/20 01:55:22;;;;;;;25.88;14.57;;;;;;;;;;5092354;28;20090;-50
2022/04/20 01:57:48;;;;;;;20.10;12.85;;;;;;;;;;5092784;28;20387;-48
2022/04/20 02:00:14;;;;;;;21.30;13.02;;;;;;;;;;5092772;28;20399;-48
2022/04/20 02:02:40;;;;;;;21.67;13.80;;;;;;;;;;5092400;28;20499;-46
2022/04/20 02:05:09;;;;;;;20.08;13.05;;;;;;;;;;5092386;28;20429;-47
2022/04/20 02:07:35;;;;;;;22.55;14.02;;;;;;;;;;5091437;28;20473;-48
2022/04/20 02:10:02;;;;;;;25.73;14.43;;;;;;;;;;5092338;28;20593;-45
2022/04/20 02:12:27;;;;;;;24.73;14.40;;;;;;;;;;5092675;28;20020;-44
2022/04/20 02:14:53;;;;;;;22.60;14.07;;;;;;;;;;5092189;28;20498;-47
2022/04/20 02:17:22;;;;;;;21.88;13.20;;;;;;;;;;5092655;28;20194;-47
2022/04/20 02:19:49;;;;;;;23.90;13.80;;;;;;;;;;5092531;28;20368;-47
2022/04/20 02:22:15;;;;;;;23.17;14.18;;;;;;;;;;5092588;28;20047;-46
2022/04/20 02:24:40;;;;;;;26.90;14.70;;;;;;;;;;5092227;28;20016;-47
2022/04/20 02:27:08;;;;;;;22.85;14.50;;;;;;;;;;5092451;28;20024;-48
2022/04/20 02:29:34;;;;;;;24.08;14.90;;;;;;;;;;5092527;28;20055;-46
2022/04/20 02:31:59;;;;;;;19.48;12.23;;;;;;;;;;5092453;28;20384;-47
2022/04/20 02:34:25;;;;;;;20.27;13.02;;;;;;;;;;5092106;28;20074;-45
2022/04/20 02:36:51;;;;;;;20.70;13.18;;;;;;;;;;5092411;28;20391;-45
2022/04/20 02:39:18;;;;;;;23.00;14.30;;;;;;;;;;5095833;28;20027;-49
2022/04/20 02:41:43;;;;;;;26.17;13.50;;;;;;;;;;5096291;28;20540;-45
2022/04/20 02:44:09;;;;;;;22.58;15.15;;;;;;;;;;5096233;28;20107;-46
2022/04/20 02:46:35;;;;;;;25.35;14.98;;;;;;;;;;5096133;28;20066;-46
2022/04/20 02:49:00;;;;;;;22.20;14.57;;;;;;;;;;5096226;28;20469;-45
2022/04/20 02:51:26;;;;;;;24.02;15.15;;;;;;;;;;5095905;28;20548;-47
2022/04/20 02:53:52;;;;;;;24.65;14.30;;;;;;;;;;5095747;28;20036;-45
2022/04/20 02:56:18;;;;;;;23.92;12.90;;;;;;;;;;5095477;28;20056;-46
2022/04/20 02:58:43;;;;;;;19.67;12.65;;;;;;;;;;5095704;28;20055;-48
2022/04/20 03:01:08;;;;;;;20.13;11.95;;;;;;;;;;5095645;28;20055;-44
2022/04/20 03:03:34;;;;;;;23.38;15.10;;;;;;;;;;5095897;28;20472;-45
2022/04/20 03:06:00;;;;;;;22.30;13.82;;;;;;;;;;5095780;28;20113;-47
2022/04/20 03:08:26;;;;;;;23.60;14.50;;;;;;;;;;5095798;28;20027;-46
2022/04/20 03:10:51;;;;;;;23.10;13.88;;;;;;;;;;5095859;28;20484;-49
2022/04/20 03:13:18;;;;;;;25.65;14.35;;;;;;;;;;5095339;28;20357;-47
2022/04/20 03:15:44;;;;;;;19.35;13.35;;;;;;;;;;5095632;28;20056;-46
2022/04/20 03:18:09;;;;;;;24.90;14.10;;;;;;;;;;5095647;28;20408;-48
2022/04/20 03:20:34;;;;;;;24.77;15.13;;;;;;;;;;5095560;28;20054;-48
2022/04/20 03:23:00;;;;;;;19.92;13.25;;;;;;;;;;5095034;28;20035;-51
2022/04/20 03:25:25;;;;;;;21.73;14.25;;;;;;;;;;5095515;28;20093;-46
2022/04/20 03:27:51;;;;;;;20.63;13.35;;;;;;;;;;5095407;28;20569;-49
2022/04/20 03:30:17;;;;;;;24.75;14.43;;;;;;;;;;5095113;28;20032;-46
2022/04/20 03:32:43;;;;;;;26.10;15.45;;;;;;;;;;5095078;28;20032;-46
2022/04/20 03:35:09;;;;;;;23.30;14.85;;;;;;;;;;5094924;28;20081;-46
2022/04/20 03:37:36;;;;;;;25.65;16.25;;;;;;;;;;5095325;28;20032;-48
2022/04/20 03:40:02;;;;;;;24.98;14.55;;;;;;;;;;5094820;28;20016;-47
2022/04/20 03:42:28;;;;;;;26.70;14.77;;;;;;;;;;5095204;28;20422;-47
2022/04/20 03:44:53;;;;;;;21.48;13.75;;;;;;;;;;5095132;28;20024;-48
2022/04/20 03:47:18;;;;;;;24.35;14.48;;;;;;;;;;5094659;28;20016;-47
2022/04/20 03:49:44;;;;;;;25.60;13.43;;;;;;;;;;5094703;28;20069;-48
2022/04/20 03:52:10;;;;;;;23.40;14.63;;;;;;;;;;5094961;28;20032;-48
2022/04/20 03:54:35;;;;;;;22.73;13.25;;;;;;;;;;5094422;28;20048;-45
2022/04/20 03:57:04;;;;;;;24.42;15.00;;;;;;;;;;5094876;28;20047;-44
2022/04/20 03:59:35;;;;;;;25.40;15.23;;;;;;;;;;5094514;28;20475;-47
2022/04/20 04:02:01;;;;;;;29.52;16.83;;;;;;;;;;5094412;28;20043;-47
2022/04/20 04:04:26;;;;;;;26.23;13.80;;;;;;;;;;5094536;28;20021;-46
2022/04/20 04:06:52;;;;;;;25.73;15.20;;;;;;;;;;5094270;28;20038;-48
2022/04/20 04:09:17;;;;;;;22.25;14.25;;;;;;;;;;5094722;28;20050;-47
2022/04/20 04:11:43;;;;;;;24.02;14.73;;;;;;;;;;5094178;28;20024;-44
2022/04/20 04:14:08;;;;;;;25.98;15.05;;;;;;;;;;5094476;28;20027;-46
2022/04/20 04:16:36;;;;;;;26.95;16.35;;;;;;;;;;5094353;28;20384;-44
2022/04/20 04:19:07;;;;;;;21.98;14.40;;;;;;;;;;5094088;28;20020;-48
2022/04/20 04:21:37;;;;;;;22.98;14.43;;;;;;;;;;5092839;28;20024;-44
2022/04/20 04:24:06;;;;;;;;;;;;;;;;;;5094799;28;20190;-46
2022/04/20 04:26:32;;;;;;;24.15;14.18;;;;;;;;;;5093970;28;20390;-45
2022/04/20 04:29:00;;;;;;;21.75;14.48;;;;;;;;;;5094204;28;20020;-44
2022/04/20 04:31:27;;;;;;;26.17;14.73;;;;;;;;;;5094067;28;20020;-44
2022/04/20 04:33:53;;;;;;;24.08;13.60;;;;;;;;;;5093851;28;20080;-47
2022/04/20 04:36:18;;;;;;;28.20;14.75;;;;;;;;;;5093956;28;20032;-48
2022/04/20 04:38:44;;;;;;;23.42;14.27;;;;;;;;;;5094030;28;20368;-46
2022/04/20 04:41:10;;;;;;;20.33;12.63;;;;;;;;;;5093924;28;20032;-45
2022/04/20 04:43:35;;;;;;;17.65;12.10;;;;;;;;;;5093523;28;20016;-43
2022/04/20 04:48:48;;;;;;;17.70;11.50;;;;;;;;;;5093760;28;20047;-45
2022/04/20 04:51:14;;;;;;;18.75;11.98;;;;;;;;;;5093769;28;20034;-46
2022/04/20 04:53:40;;;;;;;18.50;12.05;;;;;;;;;;5093729;28;20353;-44
2022/04/20 04:56:05;;;;;;;15.10;10.75;;;;;;;;;;5093095;28;20056;-44
2022/04/20 04:58:31;;;;;;;17.10;11.02;;;;;;;;;;5093381;28;20026;-46
2022/04/20 05:00:58;;;;;;;14.05;8.25;;;;;;;;;;5092611;28;20274;-45
2022/04/20 05:03:24;;;;;;;17.52;10.68;;;;;;;;;;5093297;28;20024;-45
2022/04/20 05:05:49;;;;;;;24.42;14.15;;;;;;;;;;5092066;28;20031;-46
2022/04/20 05:08:15;;;;;;;18.48;12.77;;;;;;;;;;5091897;28;20425;-49
2022/04/20 05:10:41;;;;;;;20.85;13.77;;;;;;;;;;5093146;28;20024;-45
2022/04/20 05:13:07;;;;;;;18.67;13.43;;;;;;;;;;5093431;28;20031;-46
2022/04/20 05:15:33;;;;;;;20.10;11.95;;;;;;;;;;5093191;28;20077;-45
2022/04/20 05:17:59;;;;;;;19.50;11.85;;;;;;;;;;5093175;28;20027;-47
2022/04/20 05:20:24;;;;;;;20.52;14.25;;;;;;;;;;5092991;28;20384;-47
2022/04/20 05:22:50;;;;;;;19.75;13.38;;;;;;;;;;5092051;28;20024;-47
2022/04/20 05:25:16;;;;;;;21.90;14.45;;;;;;;;;;5092082;28;20058;-51
2022/04/20 05:27:42;;;;;;;16.85;10.93;;;;;;;;;;5091827;28;20063;-44
2022/04/20 05:30:09;;;;;;;18.85;12.43;;;;;;;;;;5091275;28;20498;-41
2022/04/20 05:32:35;;;;;;;15.60;11.38;;;;;;;;;;5092295;28;20024;-48
2022/04/20 05:35:01;;;;;;;16.10;11.10;;;;;;;;;;5091031;28;20368;-48
2022/04/20 05:42:55;;;;;;;16.15;9.52;;;;;;;;;;5087352;28;20181;-41
2022/04/20 05:45:20;;;;;;;15.55;11.73;;;;;;;;;;5089392;28;20111;-42
2022/04/20 05:47:46;;;;;;;18.35;12.05;;;;;;;;;;5090836;28;20133;-43
2022/04/20 05:50:12;;;;;;;13.98;11.05;;;;;;;;;;5090992;28;20043;-50
2022/04/20 05:52:37;;;;;;;17.10;11.55;;;;;;;;;;5091075;28;20122;-47
2022/04/20 05:55:04;;;;;;;12.50;10.15;;;;;;;;;;5090874;28;20047;-44
2022/04/20 05:57:30;;;;;;;13.90;11.07;;;;;;;;;;5090925;28;20020;-43
2022/04/20 05:59:55;;;;;;;13.13;10.50;;;;;;;;;;5090848;28;20486;-44
2022/04/20 06:02:21;;;;;;;14.00;10.52;;;;;;;;;;5089509;28;20547;-44
2022/04/20 06:04:46;;;;;;;17.65;11.75;;;;;;;;;;5089570;28;20060;-45
2022/04/20 06:07:12;;;;;;;18.55;11.50;;;;;;;;;;5090894;28;20039;-44
2022/04/20 06:09:38;;;;;;;15.63;10.95;;;;;;;;;;5089341;28;20020;-44
2022/04/20 06:12:04;;;;;;;16.92;11.30;;;;;;;;;;5092896;28;20036;-46
2022/04/20 06:14:30;;;;;;;16.98;11.98;;;;;;;;;;5093323;28;20024;-44
2022/04/20 06:16:55;;;;;;;18.35;11.57;;;;;;;;;;5095063;28;20046;-44
2022/04/20 06:19:21;;;;;;;10.85;9.30;;;;;;;;;;5094825;28;20462;-47
2022/04/20 06:21:46;;;;;;;19.38;11.52;;;;;;;;;;5094613;28;20028;-45
2022/04/20 06:24:13;;;;;;;17.25;11.00;;;;;;;;;;5094526;28;20105;-48
2022/04/20 06:26:38;;;;;;;12.13;8.95;;;;;;;;;;5094516;28;20043;-46
2022/04/20 06:29:04;;;;;;;12.35;9.35;;;;;;;;;;5094559;28;20028;-45
2022/04/20 06:31:29;;;;;;;7.38;5.97;;;;;;;;;;5094316;28;20024;-43
2022/04/20 06:33:58;;;;;;;7.25;5.32;;;;;;;;;;5094745;28;20024;-44
2022/04/20 06:36:25;;;;;;;9.30;7.47;;;;;;;;;;5094608;28;20085;-46
2022/04/20 06:38:50;;;;;;;12.45;8.45;;;;;;;;;;5094673;28;20039;-46
2022/04/20 06:41:16;;;;;;;11.02;8.23;;;;;;;;;;5093861;28;20032;-48
2022/04/20 06:43:41;;;;;;;12.27;8.55;;;;;;;;;;5094622;28;20064;-46
2022/04/20 06:46:07;;;;;;;5.40;4.07;;;;;;;;;;5094551;28;20020;-44
2022/04/20 06:48:32;;;;;;;10.30;7.68;;;;;;;;;;5094207;28;20115;-45
2022/04/20 06:50:58;;;;;;;6.85;5.80;;;;;;;;;;5094230;28;20028;-47
2022/04/20 06:58:52;;;;;;;8.88;7.50;;;;;;;;;;5094423;28;20031;-48
2022/04/20 07:01:17;;;;;;;11.10;8.32;;;;;;;;;;5093754;28;20036;-45
2022/04/20 07:03:43;;;;;;;10.20;7.57;;;;;;;;;;5094375;28;20069;-44
2022/04/20 07:06:08;;;;;;;11.88;8.40;;;;;;;;;;5094059;28;20024;-43
2022/04/20 07:08:35;;;;;;;9.68;8.20;;;;;;;;;;5094122;28;20063;-42
2022/04/20 07:11:01;;;;;;;10.73;8.32;;;;;;;;;;5093896;28;20028;-43
2022/04/20 07:13:27;;;;;;;14.65;5.43;;;;;;;;;;5094146;28;20081;-45
2022/04/20 07:15:52;;;;;;;10.20;7.63;;;;;;;;;;5093706;28;20031;-47
2022/04/20 07:18:18;;;;;;;10.10;7.88;;;;;;;;;;5094116;28;20039;-43
2022/04/20 07:20:44;;;;;;;13.60;8.57;;;;;;;;;;5093928;28;20020;-45
2022/04/20 07:23:10;;;;;;;13.73;9.00;;;;;;;;;;5092906;28;20596;-48
2022/04/20 07:25:36;;;;;;;12.57;8.77;;;;;;;;;;5093853;28;20036;-42
2022/04/20 07:28:03;;;;;;;9.25;6.93;;;;;;;;;;5093874;28;20355;-49
2022/04/20 07:30:29;;;;;;;7.97;5.95;;;;;;;;;;5092280;28;20115;-43
2022/04/20 07:32:54;;;;;;;11.00;7.80;;;;;;;;;;5093346;28;20552;-48
2022/04/20 07:35:20;;;;;;;6.75;4.75;;;;;;;;;;5093177;28;20136;-43
2022/04/20 07:37:45;;;;;;;7.10;5.28;;;;;;;;;;5093462;28;20032;-43
2022/04/20 07:40:12;;;;;;;15.93;9.43;;;;;;;;;;5092884;28;20024;-44
2022/04/20 07:42:38;;;;;;;9.05;7.38;;;;;;;;;;5093212;28;20024;-43
2022/04/20 07:45:04;;;;;;;8.98;5.47;;;;;;;;;;5093118;28;20032;-43
2022/04/20 07:47:30;;;;;;;12.52;9.18;;;;;;;;;;5093076;28;20025;-44
2022/04/20 07:52:53;;;;;;;7.50;6.35;;;;;;;;;;5093158;28;20038;-42
2022/04/20 07:55:23;;;;;;;8.35;6.38;;;;;;;;;;5092872;28;20088;-43
2022/04/20 07:57:54;;;;;;;8.73;7.10;;;;;;;;;;5093240;28;20368;-43
2022/04/20 08:00:22;;;;;;;11.02;8.60;;;;;;;;;;5092963;28;20042;-49
2022/04/20 08:02:48;;;;;;;14.13;8.23;;;;;;;;;;5092773;28;20027;-44
2022/04/20 08:05:16;;;;;;;12.65;8.32;;;;;;;;;;5092800;28;20043;-49
2022/04/20 08:07:44;;;;;;;8.43;6.55;;;;;;;;;;5092949;28;20039;-44
2022/04/20 08:10:11;;;;;;;5.43;4.93;;;;;;;;;;5074797;28;20040;-46
2022/04/20 08:12:44;;;;;;;6.20;5.60;;;;;;;;;;5092583;28;20028;-49
2022/04/20 08:15:10;;;;;;;6.82;5.40;;;;;;;;;;5092172;28;20511;-45
2022/04/20 08:17:36;;;;;;;7.80;5.95;;;;;;;;;;5092116;28;20138;-49
2022/04/20 08:20:04;;;;;;;8.73;6.40;;;;;;;;;;5092665;28;20114;-48
2022/04/20 08:22:30;;;;;;;6.28;3.20;;;;;;;;;;5092808;28;20539;-49
2022/04/20 08:24:56;;;;;;;9.98;5.75;;;;;;;;;;5092305;28;20058;-50
2022/04/20 08:27:22;;;;;;;5.28;4.53;;;;;;;;;;5092555;28;20444;-46
2022/04/20 08:29:49;;;;;;;5.57;4.72;;;;;;;;;;5092444;28;20027;-47
2022/04/20 08:32:16;;;;;;;7.28;6.07;;;;;;;;;;5092546;28;20035;-46
2022/04/20 08:34:45;;;;;;;8.10;6.40;;;;;;;;;;5090978;28;20035;-46
2022/04/20 08:37:11;;;;;;;9.57;3.90;;;;;;;;;;5091862;28;20020;-47
2022/04/20 08:39:39;;;;;;;4.45;3.25;;;;;;;;;;5092207;28;20032;-48
2022/04/20 08:42:06;;;;;;;8.50;5.78;;;;;;;;;;5091883;28;20035;-43
2022/04/20 08:44:34;;;;;;;6.10;5.28;;;;;;;;;;5092460;28;20043;-49
2022/04/20 08:47:01;;;;;;;10.68;5.72;;;;;;;;;;5092109;28;20032;-44
2022/04/20 08:49:26;;;;;;;7.82;6.32;;;;;;;;;;5092369;28;20051;-46
2022/04/20 08:54:37;;;;;;;11.52;6.65;;;;;;;;;;5092040;28;20415;-44
2022/04/20 08:57:15;;;;;;;7.93;6.03;;;;;;;;;;5090184;28;20040;-42
2022/04/20 08:59:43;;;;;;;6.80;5.95;;;;;;;;;;5091845;28;20031;-44
2022/04/20 09:02:13;;;;;;;11.27;6.63;;;;;;;;;;5091886;28;20028;-46
2022/04/20 09:04:39;;;;;;;10.20;7.18;;;;;;;;;;5091634;28;20028;-48
2022/04/20 09:07:10;;;;;;;7.85;5.68;;;;;;;;;;5091826;28;20115;-47
2022/04/20 09:09:36;;;;;;;7.68;5.78;;;;;;;;;;5091349;28;20028;-47
2022/04/20 09:12:06;;;;;;;6.32;5.03;;;;;;;;;;5091336;28;20020;-46
2022/04/20 09:14:32;;;;;;;6.88;5.38;;;;;;;;;;5091109;28;20101;-47
2022/04/20 09:16:58;;;;;;;9.57;6.28;;;;;;;;;;5091265;28;20082;-50
2022/04/20 09:19:25;;;;;;;9.30;5.70;;;;;;;;;;5091468;28;20024;-46
2022/04/20 09:21:52;;;;;;;8.05;5.25;;;;;;;;;;5091628;28;20028;-43
2022/04/20 09:24:17;;;;;;;7.05;5.15;;;;;;;;;;5092484;28;20020;-44
2022/04/20 09:26:56;;;;;;;6.50;5.47;;;;;;;;;;5092892;28;20016;-46
2022/04/20 09:29:23;;;;;;;8.88;5.82;;;;;;;;;;5093151;28;20028;-46
2022/04/20 09:31:53;;;;;;;21.95;16.70;;;;;;;;;;5092844;28;20048;-43
2022/04/20 09:34:24;;;;;;;5.78;5.18;;;;;;;;;;5090921;28;20020;-45
2022/04/20 09:36:50;;;;;;;6.80;5.28;;;;;;;;;;5091749;28;20043;-42
2022/04/20 09:39:16;;;;;;;7.07;5.82;;;;;;;;;;5092538;28;20048;-42
2022/04/20 09:42:02;;;;;;;8.07;4.70;;;;;;;;;;5092545;28;20078;-44
2022/04/20 09:44:29;;;;;;;6.18;4.80;;;;;;;;;;5092005;28;20542;-42
2022/04/20 09:50:01;;;;;;;11.65;6.20;;;;;;;;;;5092754;28;20489;-42
2022/04/20 09:52:47;;;;;;;4.25;3.72;;;;;;;;;;5090715;28;20024;-43
2022/04/20 09:55:30;;;;;;;3.33;2.35;;;;;;;;;;5090916;28;20056;-42
2022/04/20 09:58:20;;;;;;;3.72;2.97;;;;;;;;;;5091285;28;20055;-45
2022/04/20 10:00:50;;;;;;;4.75;3.70;;;;;;;;;;5092439;28;20043;-39
2022/04/20 10:03:28;;;;;;;5.65;2.80;;;;;;;;;;5092111;28;20488;-45
2022/04/20 10:05:56;;;;;;;5.70;4.60;;;;;;;;;;5092340;28;20379;-40
2022/04/20 10:08:23;;;;;;;9.02;5.55;;;;;;;;;;5092288;28;20039;-40
2022/04/20 10:10:50;;;;;;;7.63;5.68;;;;;;;;;;5092378;28;20031;-41
2022/04/20 10:13:16;;;;;;;8.52;5.97;;;;;;;;;;5092181;28;20027;-40
2022/04/20 10:18:30;;;;;;;6.10;4.45;;;;;;;;;;5092633;28;20194;-45
2022/04/20 10:20:58;;;;;;;4.85;3.90;;;;;;;;;;5092463;28;20020;-48
2022/04/20 10:23:24;;;;;;;5.35;3.55;;;;;;;;;;5090855;28;20034;-45
2022/04/20 10:25:54;;;;;;;4.47;3.53;;;;;;;;;;5092237;28;20123;-41
2022/04/20 10:28:33;;;;;;;4.77;3.80;;;;;;;;;;5092191;28;20518;-45
2022/04/20 10:31:32;;;;;;;5.00;4.15;;;;;;;;;;5092568;28;20256;-42
2022/04/20 10:33:59;;;;;;;8.07;5.00;;;;;;;;;;5092081;28;20028;-44
2022/04/20 10:36:33;;;;;;;5.63;4.65;;;;;;;;;;5091804;28;20034;-41
2022/04/20 10:39:22;;;;;;;5.18;4.68;;;;;;;;;;5092145;28;20073;-45
2022/04/20 10:42:15;;;;;;;7.97;4.85;;;;;;;;;;5091799;28;20053;-42
2022/04/20 10:45:00;;;;;;;6.57;4.63;;;;;;;;;;5092100;28;20032;-42
2022/04/20 10:47:36;;;;;;;5.53;4.28;;;;;;;;;;5091952;28;20028;-40
2022/04/20 10:50:21;;;;;;;7.65;4.97;;;;;;;;;;5092241;28;20024;-42
2022/04/20 10:52:48;;;;;;;5.93;4.30;;;;;;;;;;5092292;28;20376;-41
2022/04/20 10:55:14;;;;;;;7.32;4.70;;;;;;;;;;5090868;28;20068;-42
2022/04/20 10:57:42;;;;;;;5.82;4.72;;;;;;;;;;5091858;28;20109;-43
2022/04/20 11:00:16;;;;;;;6.72;4.88;;;;;;;;;;5095585;28;20032;-43
2022/04/20 11:02:52;;;;;;;5.82;4.93;;;;;;;;;;5095506;28;20117;-43
2022/04/20 11:05:25;;;;;;;8.13;4.40;;;;;;;;;;5095626;28;20021;-44
2022/04/20 11:07:59;;;;;;;5.03;4.50;;;;;;;;;;5095339;28;20027;-43
2022/04/20 11:10:25;;;;;;;5.60;4.43;;;;;;;;;;5095754;28;20027;-40
2022/04/20 11:18:39;;;;;;;7.97;5.15;;;;;;;;;;5095299;28;20353;-40
2022/04/20 11:21:05;;;;;;;9.70;6.63;;;;;;;;;;5095307;28;20016;-39
2022/04/20 11:23:51;;;;;;;10.85;6.03;;;;;;;;;;5095192;28;20028;-43
2022/04/20 11:26:25;;;;;;;9.15;6.40;;;;;;;;;;5095070;28;20478;-42
2022/04/20 11:29:08;;;;;;;6.15;4.50;;;;;;;;;;5095153;28;20528;-42
2022/04/20 11:31:38;;;;;;;5.07;4.57;;;;;;;;;;5095031;28;20107;-42
2022/04/20 11:34:05;;;;;;;7.15;4.40;;;;;;;;;;5095082;28;20027;-40
2022/04/20 11:36:31;;;;;;;7.78;5.25;;;;;;;;;;5095096;28;20032;-44
2022/04/20 11:38:57;;;;;;;4.75;4.22;;;;;;;;;;5095210;28;20024;-40
2022/04/20 11:41:23;;;;;;;4.57;4.00;;;;;;;;;;5094940;28;20020;-43
2022/04/20 11:43:51;;;;;;;9.23;5.28;;;;;;;;;;5094695;28;20465;-40
2022/04/20 11:46:17;;;;;;;5.60;4.70;;;;;;;;;;5094674;28;20030;-42
2022/04/20 11:48:54;;;;;;;6.22;4.88;;;;;;;;;;5094500;28;20456;-40
2022/04/20 11:51:29;;;;;;;7.05;4.68;;;;;;;;;;5094731;28;20034;-42
2022/04/20 11:53:55;;;;;;;6.93;5.00;;;;;;;;;;5094715;28;20077;-43
2022/04/20 11:56:37;;;;;;;7.57;4.80;;;;;;;;;;5094319;28;20043;-43
2022/04/20 11:59:08;;;;;;;5.95;4.40;;;;;;;;;;5094697;28;20032;-42
2022/04/20 12:01:38;;;;;;;5.95;4.43;;;;;;;;;;5094533;28;20055;-44
2022/04/20 12:04:16;;;;;;;8.32;5.13;;;;;;;;;;5094364;28;20024;-42
2022/04/20 12:06:52;;;;;;;7.25;5.30;;;;;;;;;;5094263;28;20472;-41
2022/04/20 12:09:31;;;;;;;4.47;3.78;;;;;;;;;;5094153;28;20107;-43
2022/04/20 12:12:00;;;;;;;3.90;3.42;;;;;;;;;;5094279;28;20065;-40
2022/04/20 12:14:32;;;;;;;5.55;3.80;;;;;;;;;;5094260;28;20043;-41
2022/04/20 12:17:05;;;;;;;4.07;3.58;;;;;;;;;;5093631;28;20114;-40
2022/04/20 12:19:31;;;;;;;5.55;3.75;;;;;;;;;;5094035;28;20042;-44
2022/04/20 12:22:07;;;;;;;6.28;4.40;;;;;;;;;;5094285;28;20399;-44
2022/04/20 12:24:33;;;;;;;4.22;3.55;;;;;;;;;;5093971;28;20032;-40
2022/04/20 12:26:58;;;;;;;3.60;2.60;;;;;;;;;;5092840;28;20032;-42
2022/04/20 12:29:32;;;;;;;4.35;2.85;;;;;;;;;;5092637;28;20028;-40
2022/04/20 12:31:58;;;;;;;3.85;3.20;;;;;;;;;;5094189;28;20032;-42
2022/04/20 12:34:25;;;;;;;3.70;3.40;;;;;;;;;;5092638;28;20532;-40
2022/04/20 12:37:06;;;;;;;5.28;3.25;;;;;;;;;;5092466;28;20092;-44
2022/04/20 12:39:31;;;;;;;5.80;4.55;;;;;;;;;;5093940;28;20457;-41
2022/04/20 12:42:14;;;;;;;3.08;2.55;;;;;;;;;;5093490;28;20051;-40
2022/04/20 12:44:53;;;;;;;6.18;5.00;;;;;;;;;;5093388;28;20023;-40
2022/04/20 12:47:20;;;;;;;5.63;3.53;;;;;;;;;;5093848;28;20119;-42
2022/04/20 12:49:51;;;;;;;7.32;5.57;;;;;;;;;;5093520;28;20558;-40
2022/04/20 12:52:22;;;;;;;11.15;4.80;;;;;;;;;;5093279;28;20026;-41
2022/04/20 12:55:15;;;;;;;5.28;3.85;;;;;;;;;;5093133;28;20085;-41
2022/04/20 13:03:34;;;;;;;5.13;3.78;;;;;;;;;;5093342;28;20039;-42
2022/04/20 13:06:03;;;;;;;5.35;4.10;;;;;;;;;;5093576;28;20081;-42
2022/04/20 13:08:28;;;;;;;5.60;4.25;;;;;;;;;;5093419;28;20111;-45
2022/04/20 13:10:54;;;;;;;5.97;3.85;;;;;;;;;;5093091;28;20119;-43
2022/04/20 13:13:26;;;;;;;5.03;4.30;;;;;;;;;;5092814;28;20024;-49
2022/04/20 13:15:53;;;;;;;8.02;5.18;;;;;;;;;;5091248;28;20031;-44
2022/04/20 13:18:19;;;;;;;11.10;5.82;;;;;;;;;;5090987;28;20036;-48
2022/04/20 13:20:45;;;;;;;7.50;5.28;;;;;;;;;;5091167;28;20107;-45
2022/04/20 13:23:11;;;;;;;8.18;5.88;;;;;;;;;;5091077;28;20519;-46
2022/04/20 13:28:20;;;;;;;10.38;7.07;;;;;;;;;;5091220;28;20605;-46
2022/04/20 13:30:46;;;;;;;5.43;4.93;;;;;;;;;;5091249;28;20032;-50
2022/04/20 13:33:14;;;;;;;6.47;4.65;;;;;;;;;;5091310;28;20052;-47
2022/04/20 13:35:41;;;;;;;9.48;4.50;;;;;;;;;;5091230;28;20042;-52
2022/04/20 13:38:07;;;;;;;6.55;4.65;;;;;;;;;;5091203;28;20020;-51
2022/04/20 13:40:36;;;;;;;5.55;4.55;;;;;;;;;;5090833;28;20032;-44
2022/04/20 13:43:01;;;;;;;4.65;3.92;;;;;;;;;;5091281;28;20081;-52
2022/04/20 13:45:28;;;;;;;5.47;4.32;;;;;;;;;;5091269;28;20422;-41
2022/04/20 13:47:54;;;;;;;5.03;3.88;;;;;;;;;;5091244;28;20089;-43
2022/04/20 13:50:20;;;;;;;5.28;4.03;;;;;;;;;;5091277;28;20021;-40
2022/04/20 13:52:46;;;;;;;7.25;4.15;;;;;;;;;;5090951;28;20087;-50
2022/04/20 13:55:12;;;;;;;4.85;4.03;;;;;;;;;;5090729;28;20054;-41
2022/04/20 13:57:37;;;;;;;7.85;5.32;;;;;;;;;;5091085;28;20484;-41
2022/04/20 14:00:13;;;;;;;7.32;5.20;;;;;;;;;;5091136;28;20038;-50
2022/04/20 14:02:42;;;;;;;6.53;5.18;;;;;;;;;;5091239;28;20029;-44
2022/04/20 14:05:11;;;;;;;9.82;5.32;;;;;;;;;;5091155;28;20024;-42
2022/04/20 14:07:38;;;;;;;4.88;3.85;;;;;;;;;;5090862;28;20020;-41
2022/04/20 14:10:07;;;;;;;5.07;3.92;;;;;;;;;;5091094;28;20032;-41
2022/04/20 14:12:33;;;;;;;4.15;3.75;;;;;;;;;;5091037;28;20039;-50
2022/04/20 14:14:59;;;;;;;5.72;3.63;;;;;;;;;;5089461;28;20126;-42
2022/04/20 14:17:25;;;;;;;4.40;3.60;;;;;;;;;;5091043;28;20114;-42
2022/04/20 14:19:50;;;;;;;5.70;3.50;;;;;;;;;;5090773;28;20444;-46
2022/04/20 14:22:16;;;;;;;5.35;3.70;;;;;;;;;;5090974;28;20039;-46
2022/04/20 14:24:43;;;;;;;3.60;3.30;;;;;;;;;;5090757;28;20028;-49
2022/04/20 14:32:37;;;;;;;6.60;3.88;;;;;;;;;;5092013;28;20043;-43
2022/04/20 14:35:03;;;;;;;4.03;3.55;;;;;;;;;;5094533;28;20028;-49
2022/04/20 14:37:29;;;;;;;3.95;3.47;;;;;;;;;;5094560;28;20032;-44
2022/04/20 14:39:57;;;;;;;4.95;4.10;;;;;;;;;;5094561;28;20039;-49
2022/04/20 14:42:23;;;;;;;7.22;3.88;;;;;;;;;;5094526;28;20070;-42
2022/04/20 14:44:49;;;;;;;5.20;3.85;;;;;;;;;;5094818;28;20052;-41
2022/04/20 14:47:14;;;;;;;5.13;4.40;;;;;;;;;;5094708;28;20035;-41
2022/04/20 14:49:41;;;;;;;6.97;3.90;;;;;;;;;;5093618;28;20447;-43
2022/04/20 14:52:10;;;;;;;4.15;3.75;;;;;;;;;;5093148;28;20025;-45
2022/04/20 14:54:36;;;;;;;3.95;3.55;;;;;;;;;;5093724;28;20031;-44
2022/04/20 14:57:03;;;;;;;4.68;3.80;;;;;;;;;;5093976;28;20032;-53
2022/04/20 14:59:29;;;;;;;4.45;3.60;;;;;;;;;;5094145;28;20169;-50
2022/04/20 15:01:54;;;;;;;4.32;3.58;;;;;;;;;;5093240;28;20123;-54
2022/04/20 15:04:20;;;;;;;4.53;3.55;;;;;;;;;;5092699;28;20026;-40
2022/04/20 15:06:48;;;;;;;4.32;3.65;;;;;;;;;;5093908;28;20593;-46
2022/04/20 15:09:14;;;;;;;3.55;3.20;;;;;;;;;;5093990;28;20400;-48
2022/04/20 15:11:40;;;;;;;6.93;3.03;;;;;;;;;;5094119;28;20032;-43
2022/04/20 15:14:06;;;;;;;3.90;3.08;;;;;;;;;;5094190;28;20441;-49
2022/04/20 15:16:31;;;;;;;6.00;3.15;;;;;;;;;;5093944;28;20028;-51
2022/04/20 15:18:57;;;;;;;3.50;2.95;;;;;;;;;;5093708;28;20055;-47